Time;durP1;ratioP1;P1;durP2;ratioP2;P2;SDS_P1;SDS_P2;PMS_P1;PMS_P2;Temp;Humidity;BMP_temperature;BMP_pressure;BME280_temperature;BME280_humidity;BME280_pressure;Samples;Min_cycle;Max_cycle;Signal;HPM_P1;HPM_P2
2022/03/05 00:01:10;;;;;;;3.42;3.22;;;-2.30;99.30;;;;;;4993408;28;20238;-67
2022/03/05 00:03:37;;;;;;;4.38;3.30;;;-2.30;99.30;;;;;;4993796;28;20238;-66
2022/03/05 00:06:04;;;;;;;4.53;4.00;;;-2.30;99.90;;;;;;4993745;28;20305;-66
2022/03/05 00:08:31;;;;;;;3.83;3.47;;;-2.30;99.90;;;;;;4993467;28;20211;-66
2022/03/05 00:10:59;;;;;;;3.33;3.03;;;-2.30;99.90;;;;;;4993627;28;20245;-66
2022/03/05 00:13:26;;;;;;;3.30;3.00;;;-2.40;99.90;;;;;;4993836;28;20203;-66
2022/03/05 00:15:53;;;;;;;4.15;3.15;;;-2.40;99.90;;;;;;4993328;28;20601;-66
2022/03/05 00:18:20;;;;;;;2.85;2.65;;;-2.40;99.90;;;;;;4993870;28;20202;-67
2022/03/05 00:20:47;;;;;;;3.78;3.15;;;-2.40;99.90;;;;;;4993596;28;20686;-67
2022/03/05 05:58:50;;;;;;;3.30;3.08;;;-4.40;99.90;;;;;;5367900;23;20701;-67
2022/03/05 06:01:17;;;;;;;3.85;2.90;;;-4.40;99.90;;;;;;4995442;28;20673;-67
2022/03/05 06:03:45;;;;;;;3.20;2.92;;;-4.40;99.90;;;;;;4995391;28;20207;-67
2022/03/05 06:06:12;;;;;;;4.53;3.30;;;-4.40;99.90;;;;;;4995584;28;20205;-68
2022/03/05 06:08:39;;;;;;;4.00;3.58;;;-4.40;99.90;;;;;;4995491;28;20229;-68
2022/03/05 06:11:06;;;;;;;7.47;4.60;;;-4.40;99.90;;;;;;4996126;28;20230;-67
2022/03/05 06:13:33;;;;;;;7.07;4.45;;;-4.40;99.90;;;;;;4995603;28;20206;-67
2022/03/05 06:16:01;;;;;;;6.53;4.55;;;-4.30;99.90;;;;;;4995437;28;20248;-67
2022/03/05 06:18:28;;;;;;;6.57;4.93;;;-4.30;99.90;;;;;;4995429;28;20219;-67
2022/03/05 06:20:55;;;;;;;8.07;5.22;;;-4.30;99.90;;;;;;4995111;28;20293;-67
2022/03/05 06:23:23;;;;;;;6.43;4.93;;;-4.20;99.90;;;;;;4995546;28;20234;-67
2022/03/05 06:25:50;;;;;;;8.82;4.50;;;-4.10;99.90;;;;;;4995244;28;20198;-67
2022/03/05 06:28:17;;;;;;;7.10;4.75;;;-3.70;99.90;;;;;;4994968;28;20219;-67
2022/03/05 06:30:44;;;;;;;6.22;4.32;;;-3.00;99.90;;;;;;4995191;28;20202;-66
2022/03/05 06:33:13;;;;;;;5.25;4.22;;;-2.20;99.90;;;;;;4994797;28;20543;-66
2022/03/05 06:35:39;;;;;;;6.05;3.83;;;-1.00;99.90;;;;;;4994769;28;20226;-66
2022/03/05 06:38:06;;;;;;;5.38;3.97;;;0.50;99.90;;;;;;4994945;28;20229;-66
2022/03/05 06:40:33;;;;;;;6.60;3.45;;;2.30;99.90;;;;;;4995503;28;20208;-66
2022/03/05 06:43:00;;;;;;;8.90;4.20;;;3.90;91.40;;;;;;4995194;28;20198;-67
2022/03/05 06:45:27;;;;;;;4.65;3.80;;;5.30;71.00;;;;;;4994958;28;20688;-67
2022/03/05 06:47:54;;;;;;;5.72;4.18;;;6.20;55.80;;;;;;4994978;28;20241;-67
2022/03/05 06:50:23;;;;;;;3.80;3.50;;;6.60;40.10;;;;;;4994146;28;20206;-67
2022/03/05 06:52:49;;;;;;;4.13;3.72;;;6.80;36.90;;;;;;4994943;28;20333;-67
2022/03/05 06:55:16;;;;;;;3.95;3.55;;;7.10;39.90;;;;;;4994794;28;20309;-67
2022/03/05 06:57:44;;;;;;;5.28;3.83;;;8.10;43.30;;;;;;4994506;28;20273;-67
2022/03/05 07:00:14;;;;;;;5.80;4.65;;;9.40;40.20;;;;;;4994718;28;20221;-67
2022/03/05 07:02:42;;;;;;;6.60;4.50;;;10.80;34.80;;;;;;4994425;28;20203;-67
2022/03/05 07:05:09;;;;;;;5.38;4.30;;;12.00;31.00;;;;;;4994587;28;20206;-66
2022/03/05 07:07:37;;;;;;;5.32;4.18;;;13.10;28.90;;;;;;4994574;28;20228;-67
2022/03/05 07:10:06;;;;;;;5.20;4.38;;;14.20;27.40;;;;;;4994801;28;20206;-68
2022/03/05 07:12:33;;;;;;;6.03;4.82;;;15.00;25.20;;;;;;4995257;28;20206;-66
2022/03/05 07:15:01;;;;;;;7.10;5.30;;;15.50;22.60;;;;;;4994910;28;20230;-68
2022/03/05 07:17:29;;;;;;;8.75;5.70;;;15.90;20.80;;;;;;4994980;28;20209;-67
2022/03/05 07:19:56;;;;;;;11.60;6.60;;;16.10;19.70;;;;;;4994480;28;20745;-68
2022/03/05 07:22:23;;;;;;;11.00;6.60;;;16.10;18.10;;;;;;4994652;28;20242;-68
2022/03/05 07:24:51;;;;;;;10.48;6.10;;;15.80;18.00;;;;;;4994551;28;20198;-68
2022/03/05 07:27:19;;;;;;;11.00;6.38;;;15.70;17.90;;;;;;4994859;28;20570;-67
2022/03/05 07:29:46;;;;;;;9.75;6.82;;;15.50;17.90;;;;;;4994492;28;20289;-67
2022/03/05 07:32:14;;;;;;;11.27;7.20;;;15.10;17.80;;;;;;4994724;28;20202;-68
2022/03/05 07:34:41;;;;;;;10.45;6.93;;;14.60;17.80;;;;;;4994096;28;20205;-68
2022/03/05 07:37:08;;;;;;;9.05;6.38;;;13.80;17.90;;;;;;4994217;28;20207;-68
2022/03/05 07:39:34;;;;;;;8.77;6.40;;;13.20;18.50;;;;;;4994176;28;20324;-68
2022/03/05 07:42:03;;;;;;;6.88;5.70;;;12.70;19.10;;;;;;4994408;28;20209;-68
2022/03/05 07:44:32;;;;;;;7.72;5.35;;;12.50;19.50;;;;;;4994266;28;20203;-68
2022/03/05 07:46:58;;;;;;;11.02;7.60;;;12.30;20.00;;;;;;4993894;28;20561;-68
2022/03/05 07:49:25;;;;;;;7.55;6.68;;;11.90;19.60;;;;;;4994278;28;20277;-68
2022/03/05 07:51:52;;;;;;;9.15;7.13;;;11.40;20.50;;;;;;4994129;28;20290;-68
2022/03/05 07:54:20;;;;;;;12.68;9.13;;;11.00;20.50;;;;;;4994077;28;20202;-68
2022/03/05 07:56:46;;;;;;;10.55;7.93;;;10.00;20.90;;;;;;4993697;28;20213;-68
2022/03/05 07:59:15;;;;;;;9.00;6.78;;;9.40;22.10;;;;;;4993936;28;20317;-68
2022/03/05 08:01:42;;;;;;;11.95;7.70;;;9.00;23.20;;;;;;4993566;28;20626;-68
2022/03/05 08:04:08;;;;;;;13.32;8.77;;;9.00;23.40;;;;;;4994097;28;20202;-68
2022/03/05 08:06:37;;;;;;;12.85;8.88;;;8.80;23.40;;;;;;4993785;28;20658;-69
2022/03/05 08:09:03;;;;;;;12.55;7.45;;;8.60;23.50;;;;;;4993978;28;20233;-68
2022/03/05 08:11:31;;;;;;;13.90;9.27;;;8.50;24.50;;;;;;4994382;28;20230;-69
2022/03/05 08:13:57;;;;;;;12.48;8.85;;;8.50;24.10;;;;;;4993915;28;20753;-68
2022/03/05 08:16:26;;;;;;;12.70;8.27;;;8.30;24.20;;;;;;4993791;28;20321;-70
2022/03/05 08:18:53;;;;;;;12.60;8.32;;;8.00;24.40;;;;;;4993776;28;20313;-67
2022/03/05 08:21:21;;;;;;;14.68;10.10;;;7.80;24.90;;;;;;4993761;28;20202;-67
2022/03/05 08:23:47;;;;;;;14.70;9.55;;;7.60;25.00;;;;;;4993703;28;20202;-67
2022/03/05 08:26:14;;;;;;;17.02;10.32;;;7.40;25.70;;;;;;4993863;28;20301;-67
2022/03/05 08:28:43;;;;;;;17.05;12.23;;;7.20;25.70;;;;;;4993686;28;20309;-67
2022/03/05 08:31:11;;;;;;;18.75;13.63;;;7.00;26.10;;;;;;4993815;28;20203;-67
2022/03/05 08:33:40;;;;;;;17.00;11.38;;;6.70;26.60;;;;;;4993416;28;20566;-67
2022/03/05 08:36:07;;;;;;;18.20;11.80;;;6.40;26.80;;;;;;4993271;28;20734;-67
2022/03/05 08:38:36;;;;;;;17.13;10.77;;;5.90;27.30;;;;;;4993595;28;20301;-67
2022/03/05 08:41:04;;;;;;;15.68;10.73;;;5.50;28.10;;;;;;4993574;28;20210;-67
2022/03/05 08:43:31;;;;;;;18.15;10.80;;;5.30;28.80;;;;;;4993618;28;20199;-67
2022/03/05 08:45:58;;;;;;;16.92;10.85;;;5.20;29.60;;;;;;4993795;28;20270;-67
2022/03/05 08:48:25;;;;;;;16.92;10.60;;;5.10;29.40;;;;;;4993461;28;20226;-67
2022/03/05 08:50:53;;;;;;;17.40;11.85;;;5.20;29.20;;;;;;4993516;28;20209;-67
2022/03/05 08:53:20;;;;;;;17.70;11.15;;;5.00;29.20;;;;;;4993256;28;20218;-67
2022/03/05 08:55:47;;;;;;;14.88;10.27;;;4.70;30.00;;;;;;4993661;28;20226;-67
2022/03/05 08:58:13;;;;;;;15.02;10.68;;;4.60;29.60;;;;;;4993606;28;20314;-68
2022/03/05 09:00:40;;;;;;;18.65;10.70;;;4.40;30.00;;;;;;4993322;28;20210;-69
2022/03/05 09:03:07;;;;;;;16.40;10.80;;;4.30;31.30;;;;;;4993378;28;20230;-69
2022/03/05 09:05:34;;;;;;;15.23;9.63;;;4.50;30.90;;;;;;4993396;28;20266;-69
2022/03/05 09:08:03;;;;;;;13.70;9.32;;;4.70;31.00;;;;;;4993303;28;20229;-69
2022/03/05 09:10:30;;;;;;;15.18;9.60;;;4.90;31.10;;;;;;4993026;28;20662;-69
2022/03/05 09:12:56;;;;;;;12.55;9.18;;;5.20;30.40;;;;;;4994825;28;20210;-69
2022/03/05 09:15:23;;;;;;;14.07;9.48;;;5.50;30.10;;;;;;4996616;28;20318;-69
2022/03/05 09:17:50;;;;;;;12.75;8.52;;;5.50;29.60;;;;;;4996848;28;20225;-69
2022/03/05 09:20:18;;;;;;;19.10;10.48;;;5.70;29.00;;;;;;4996729;28;20198;-69
2022/03/05 09:22:45;;;;;;;14.57;9.05;;;5.70;29.00;;;;;;4996778;28;20213;-69
2022/03/05 09:25:13;;;;;;;15.75;9.90;;;5.80;30.50;;;;;;4996707;28;20209;-69
2022/03/05 09:27:41;;;;;;;13.95;8.40;;;5.70;29.60;;;;;;4996562;28;20225;-69
2022/03/05 09:30:09;;;;;;;15.63;9.95;;;5.70;29.70;;;;;;4996644;28;20206;-68
2022/03/05 09:32:36;;;;;;;16.38;8.60;;;5.70;29.30;;;;;;4996582;28;20211;-68
2022/03/05 09:35:03;;;;;;;14.45;9.05;;;5.80;29.50;;;;;;4996525;28;20209;-68
2022/03/05 09:37:31;;;;;;;13.63;9.00;;;5.70;29.00;;;;;;4996183;28;20273;-68
2022/03/05 09:39:58;;;;;;;17.05;9.80;;;5.60;28.70;;;;;;4996500;28;20206;-68
2022/03/05 09:42:27;;;;;;;15.48;9.40;;;5.40;28.20;;;;;;4996461;28;20297;-68
2022/03/05 09:44:54;;;;;;;12.27;7.97;;;5.00;28.30;;;;;;4996489;28;20569;-68
2022/03/05 09:47:23;;;;;;;13.05;9.10;;;4.80;28.50;;;;;;4996362;28;20545;-68
2022/03/05 09:49:50;;;;;;;16.25;8.95;;;4.50;28.80;;;;;;4996639;28;20209;-68
2022/03/05 09:52:17;;;;;;;13.18;8.38;;;4.50;29.50;;;;;;4996002;28;20209;-68
2022/03/05 09:54:44;;;;;;;12.65;7.65;;;4.40;29.20;;;;;;4996348;28;20187;-68
2022/03/05 09:57:12;;;;;;;12.75;8.07;;;4.10;29.00;;;;;;4996126;28;20273;-68
2022/03/05 09:59:41;;;;;;;10.68;7.38;;;3.80;28.90;;;;;;4995938;28;20681;-68
2022/03/05 10:02:08;;;;;;;14.57;9.15;;;3.50;29.70;;;;;;4995828;28;20661;-68
2022/03/05 10:04:35;;;;;;;17.77;8.48;;;3.50;30.10;;;;;;4995983;28;20658;-70
2022/03/05 10:07:10;;;;;;;15.18;8.50;;;3.40;30.00;;;;;;4995753;28;20666;-70
2022/03/05 10:09:38;;;;;;;11.73;7.95;;;3.40;30.00;;;;;;4996001;28;20198;-70
2022/03/05 10:12:28;;;;;;;14.23;8.02;;;3.30;30.00;;;;;;4995648;28;20684;-70
2022/03/05 10:15:10;;;;;;;11.75;8.02;;;3.20;30.10;;;;;;4995892;28;20197;-70
2022/03/05 10:17:54;;;;;;;14.38;8.85;;;3.20;31.30;;;;;;4995452;28;20682;-70
2022/03/05 10:20:22;;;;;;;9.10;7.13;;;3.20;30.90;;;;;;4995866;28;20575;-70
2022/03/05 10:23:01;;;;;;;12.55;8.30;;;3.20;31.00;;;;;;4995284;28;20542;-70
2022/03/05 10:25:33;;;;;;;11.50;7.68;;;3.20;31.30;;;;;;4995721;28;20270;-70
2022/03/05 10:28:06;;;;;;;14.68;8.05;;;3.30;30.50;;;;;;4995567;28;20277;-70
2022/03/05 10:30:37;;;;;;;10.50;7.30;;;3.30;30.60;;;;;;4995240;28;20183;-70
2022/03/05 10:33:05;;;;;;;11.80;6.68;;;3.40;30.00;;;;;;4995547;28;20191;-69
2022/03/05 10:35:32;;;;;;;8.40;6.03;;;3.40;28.90;;;;;;4995318;28;20289;-69
2022/03/05 10:37:58;;;;;;;12.43;6.72;;;3.50;29.00;;;;;;4995185;28;20219;-69
2022/03/05 10:40:30;;;;;;;10.27;6.53;;;3.50;29.30;;;;;;4994807;28;20238;-68
2022/03/05 10:43:00;;;;;;;7.72;6.03;;;3.60;29.20;;;;;;4995324;28;20269;-69
2022/03/05 10:45:29;;;;;;;9.02;6.35;;;3.60;29.40;;;;;;4995237;28;20206;-69
2022/03/05 10:47:59;;;;;;;8.68;6.15;;;3.70;29.60;;;;;;4994769;28;20559;-69
2022/03/05 10:50:28;;;;;;;10.93;7.22;;;3.80;29.40;;;;;;4994878;28;20218;-69
2022/03/05 10:52:58;;;;;;;10.55;6.60;;;3.80;28.70;;;;;;4995147;28;20206;-69
2022/03/05 10:55:27;;;;;;;10.07;7.18;;;3.70;28.70;;;;;;4994817;28;20681;-69
2022/03/05 10:58:03;;;;;;;10.40;6.28;;;3.70;29.00;;;;;;4994855;28;20313;-68
2022/03/05 11:00:31;;;;;;;8.23;6.28;;;3.70;29.00;;;;;;4994551;28;20256;-68
2022/03/05 11:03:02;;;;;;;10.13;7.43;;;3.70;28.70;;;;;;4994903;28;20203;-68
2022/03/05 11:05:29;;;;;;;7.13;5.85;;;3.60;29.20;;;;;;4994914;28;20191;-68
2022/03/05 11:07:57;;;;;;;13.75;6.85;;;3.60;29.70;;;;;;4994420;28;20651;-68
2022/03/05 11:10:29;;;;;;;8.20;6.53;;;3.60;29.70;;;;;;4994776;28;20207;-68
2022/03/05 11:12:59;;;;;;;11.23;6.22;;;3.70;30.20;;;;;;4994879;28;20278;-68
2022/03/05 11:15:26;;;;;;;10.38;6.72;;;3.80;29.90;;;;;;4994466;28;20194;-69
2022/03/05 11:17:53;;;;;;;8.88;5.53;;;3.80;28.50;;;;;;4994496;28;20313;-69
2022/03/05 11:20:22;;;;;;;7.15;5.70;;;3.80;28.50;;;;;;4994728;28;20202;-68
2022/03/05 11:22:53;;;;;;;9.80;5.85;;;3.90;28.70;;;;;;4994863;28;20209;-68
2022/03/05 11:25:22;;;;;;;12.95;6.82;;;3.80;29.10;;;;;;4994234;28;20198;-68
2022/03/05 11:27:55;;;;;;;11.73;6.88;;;3.80;29.60;;;;;;4994381;28;20223;-68
2022/03/05 11:30:22;;;;;;;11.07;7.03;;;3.80;29.30;;;;;;4994535;28;20187;-68
2022/03/05 11:32:49;;;;;;;12.40;7.40;;;3.70;29.50;;;;;;4994181;28;20202;-68
2022/03/05 11:35:23;;;;;;;10.43;7.10;;;3.60;29.90;;;;;;4993989;28;20209;-68
2022/03/05 11:37:51;;;;;;;9.70;6.25;;;3.50;29.90;;;;;;4994056;28;20226;-69
2022/03/05 11:40:39;;;;;;;6.80;5.30;;;3.60;29.80;;;;;;4994863;28;20207;-69
2022/03/05 11:43:17;;;;;;;10.80;7.40;;;3.70;29.70;;;;;;4994331;28;20274;-69
2022/03/05 11:45:48;;;;;;;8.95;6.68;;;3.70;29.70;;;;;;4994512;28;20229;-69
2022/03/05 11:48:33;;;;;;;11.00;6.72;;;3.70;29.60;;;;;;4993695;28;20697;-69
2022/03/05 11:51:08;;;;;;;9.05;6.43;;;3.80;29.70;;;;;;4993679;28;20290;-69
2022/03/05 11:53:35;;;;;;;8.35;5.95;;;3.80;28.70;;;;;;4993929;28;20639;-69
2022/03/05 11:56:23;;;;;;;6.93;5.57;;;3.80;28.10;;;;;;4994086;28;20207;-69
2022/03/05 11:58:50;;;;;;;7.65;5.38;;;3.80;28.50;;;;;;4994023;28;20226;-69
2022/03/05 12:01:38;;;;;;;9.93;6.78;;;3.90;28.80;;;;;;4993892;28;20277;-69
2022/03/05 15:44:38;;;;;;;8.93;6.47;;;3.70;28.60;;;;;;5945820;23;20260;-73
2022/03/05 15:47:05;;;;;;;10.65;6.93;;;3.70;28.80;;;;;;4994240;28;20538;-72
2022/03/05 15:49:32;;;;;;;9.73;6.80;;;3.70;29.00;;;;;;4994651;28;20315;-72
2022/03/05 15:51:59;;;;;;;9.95;6.80;;;3.60;29.10;;;;;;4994382;28;20209;-72
2022/03/05 15:54:26;;;;;;;11.25;7.82;;;3.60;29.20;;;;;;4994576;28;20208;-72
2022/03/05 15:56:53;;;;;;;12.77;7.40;;;3.60;29.50;;;;;;4994268;28;20261;-72
2022/03/05 15:59:21;;;;;;;12.30;7.50;;;3.50;29.70;;;;;;4994555;28;20218;-72
2022/03/05 16:01:49;;;;;;;9.80;6.72;;;3.50;29.90;;;;;;4994116;28;20525;-72
2022/03/05 16:04:16;;;;;;;10.23;7.38;;;3.50;30.00;;;;;;4994441;28;20213;-74
2022/03/05 16:06:43;;;;;;;10.50;7.68;;;3.50;30.10;;;;;;4994248;28;20205;-74
2022/03/05 16:09:10;;;;;;;11.43;7.93;;;3.40;30.00;;;;;;4994389;28;20224;-74
2022/03/05 16:11:39;;;;;;;11.88;8.05;;;3.40;30.00;;;;;;4994281;28;20203;-73
2022/03/05 16:14:06;;;;;;;11.18;7.60;;;3.40;30.00;;;;;;4994184;28;20252;-73
2022/03/05 16:16:33;;;;;;;11.27;7.38;;;3.40;30.30;;;;;;4994089;28;20309;-74
2022/03/05 16:19:01;;;;;;;10.98;7.55;;;3.40;30.40;;;;;;4994358;28;20240;-73
2022/03/05 16:21:28;;;;;;;11.30;7.25;;;3.40;30.40;;;;;;4995038;28;20183;-74
2022/03/05 16:23:56;;;;;;;10.30;7.38;;;3.30;30.40;;;;;;4997957;28;20292;-71
2022/03/05 16:26:22;;;;;;;10.65;7.40;;;3.30;30.60;;;;;;4998120;28;20309;-73
2022/03/05 16:28:52;;;;;;;11.07;7.53;;;3.20;30.90;;;;;;4998173;28;20191;-73
2022/03/05 16:31:19;;;;;;;12.20;7.85;;;3.10;31.10;;;;;;4998055;28;20280;-73
2022/03/05 16:33:46;;;;;;;10.68;7.05;;;3.10;31.40;;;;;;4997657;28;20206;-74
2022/03/05 16:36:15;;;;;;;9.00;6.65;;;3.10;31.50;;;;;;4998165;28;20309;-73
2022/03/05 16:38:42;;;;;;;11.00;7.82;;;3.10;31.50;;;;;;4997844;28;20219;-74
2022/03/05 16:41:09;;;;;;;10.68;7.55;;;3.00;31.70;;;;;;4997814;28;20203;-74
2022/03/05 16:43:37;;;;;;;11.98;8.13;;;3.00;32.00;;;;;;4997724;28;20203;-74
2022/03/05 16:46:05;;;;;;;10.50;7.45;;;2.90;32.10;;;;;;4997404;28;20233;-73
2022/03/05 16:48:33;;;;;;;11.80;7.95;;;2.90;32.40;;;;;;4997612;28;20199;-73
2022/03/05 16:51:00;;;;;;;12.68;8.57;;;2.80;32.50;;;;;;4997337;28;20649;-73
2022/03/05 16:53:29;;;;;;;12.48;8.20;;;2.80;33.30;;;;;;4998184;28;20225;-73
2022/03/05 16:55:56;;;;;;;12.57;7.93;;;2.70;32.70;;;;;;4996740;28;20549;-73
2022/03/05 16:58:23;;;;;;;10.40;7.22;;;2.70;32.80;;;;;;4997119;28;20210;-72
2022/03/05 17:00:50;;;;;;;12.82;7.65;;;2.70;33.00;;;;;;4997333;28;20205;-72
2022/03/05 17:03:17;;;;;;;9.82;7.38;;;2.70;33.10;;;;;;4997357;28;20198;-72
2022/03/05 17:05:44;;;;;;;11.30;7.60;;;2.60;33.30;;;;;;4997488;28;20228;-72
2022/03/05 17:08:11;;;;;;;12.73;8.02;;;2.60;33.60;;;;;;4997452;28;20207;-72
2022/03/05 17:10:39;;;;;;;10.85;7.43;;;2.50;33.80;;;;;;4997440;28;20234;-72
2022/03/05 17:13:06;;;;;;;10.73;7.93;;;2.40;34.20;;;;;;4997414;28;20289;-72
2022/03/05 17:15:33;;;;;;;9.23;7.40;;;2.40;34.20;;;;;;4997300;28;20697;-72
2022/03/05 17:18:00;;;;;;;11.63;7.68;;;2.30;34.70;;;;;;4996796;28;20309;-73
2022/03/05 17:20:28;;;;;;;13.57;8.52;;;2.30;35.10;;;;;;4996921;28;20203;-72
2022/03/05 17:22:54;;;;;;;11.75;7.75;;;2.20;35.50;;;;;;4997202;28;20286;-72
2022/03/05 17:25:21;;;;;;;9.40;6.90;;;2.20;35.90;;;;;;4996708;28;20261;-72
2022/03/05 17:27:50;;;;;;;11.57;7.90;;;2.10;36.20;;;;;;4996924;28;20198;-72
2022/03/05 17:30:17;;;;;;;9.88;6.68;;;2.10;36.50;;;;;;4996803;28;20206;-72
2022/03/05 17:32:43;;;;;;;10.20;7.22;;;2.00;36.80;;;;;;4996275;28;20210;-72
2022/03/05 17:35:14;;;;;;;11.20;7.00;;;2.00;37.10;;;;;;4996589;28;20219;-72
2022/03/05 17:37:41;;;;;;;9.70;7.45;;;1.90;37.50;;;;;;4996716;28;20206;-72
2022/03/05 17:40:09;;;;;;;11.15;7.60;;;1.90;38.10;;;;;;4996832;28;20302;-72
2022/03/05 17:42:36;;;;;;;10.07;7.72;;;1.80;38.50;;;;;;4996769;28;20238;-72
2022/03/05 17:45:05;;;;;;;11.23;7.85;;;1.70;38.70;;;;;;4996710;28;20240;-72
2022/03/05 17:47:32;;;;;;;11.63;7.18;;;1.70;39.20;;;;;;4996758;28;20201;-72
2022/03/05 17:49:58;;;;;;;11.18;7.30;;;1.70;39.50;;;;;;4996658;28;20293;-74
2022/03/05 17:52:25;;;;;;;9.57;6.90;;;1.60;39.70;;;;;;4996155;28;20705;-73
2022/03/05 17:54:53;;;;;;;12.27;7.70;;;1.60;40.00;;;;;;4996841;28;20585;-73
2022/03/05 17:57:20;;;;;;;11.10;7.45;;;1.50;40.10;;;;;;4996611;28;20694;-74
2022/03/05 17:59:47;;;;;;;12.43;8.18;;;1.50;40.60;;;;;;4996795;28;20210;-75
2022/03/05 18:02:15;;;;;;;10.82;7.80;;;1.40;41.20;;;;;;4996674;28;20289;-75
2022/03/05 18:04:43;;;;;;;12.68;7.40;;;1.30;41.40;;;;;;4997186;28;20222;-75
2022/03/05 18:07:09;;;;;;;9.70;7.03;;;1.30;42.00;;;;;;4996593;28;20193;-75
2022/03/05 18:09:36;;;;;;;10.30;7.10;;;1.20;42.80;;;;;;4996496;28;20202;-75
2022/03/05 18:12:04;;;;;;;9.15;7.13;;;1.10;43.50;;;;;;4996972;28;20213;-75
2022/03/05 18:14:31;;;;;;;9.57;6.72;;;1.00;44.40;;;;;;4996033;28;20206;-74
2022/03/05 18:16:58;;;;;;;8.73;6.60;;;0.90;45.20;;;;;;4996432;28;20238;-75
2022/03/05 18:19:26;;;;;;;8.73;6.45;;;0.80;45.60;;;;;;4996834;28;20203;-75
2022/03/05 18:21:55;;;;;;;8.82;5.70;;;0.80;46.30;;;;;;4996911;28;20187;-76
2022/03/05 18:24:22;;;;;;;10.88;7.75;;;0.70;46.70;;;;;;4996007;28;20253;-74
2022/03/05 18:26:49;;;;;;;11.65;7.07;;;0.70;47.40;;;;;;4995430;28;20662;-74
2022/03/05 18:29:16;;;;;;;13.98;7.95;;;0.60;47.70;;;;;;4995671;28;20231;-74
2022/03/05 18:31:43;;;;;;;11.85;7.95;;;0.60;48.00;;;;;;4995574;28;20207;-74
2022/03/05 18:34:10;;;;;;;10.65;7.22;;;0.60;48.20;;;;;;4995172;28;20213;-75
2022/03/05 18:36:38;;;;;;;14.18;7.72;;;0.60;47.90;;;;;;4995428;28;20734;-74
2022/03/05 18:39:05;;;;;;;11.07;7.30;;;0.60;47.90;;;;;;4995193;28;20254;-75
2022/03/05 18:41:32;;;;;;;10.52;6.70;;;0.60;48.00;;;;;;4995541;28;20208;-75
2022/03/05 18:43:59;;;;;;;10.20;7.03;;;0.50;48.10;;;;;;4995304;28;20555;-75
2022/03/05 18:46:26;;;;;;;11.13;6.50;;;0.50;48.10;;;;;;4995197;28;20258;-75
2022/03/05 18:48:53;;;;;;;10.57;7.22;;;0.50;48.10;;;;;;4995681;28;20205;-74
2022/03/05 18:51:20;;;;;;;8.27;6.43;;;0.50;48.10;;;;;;4996122;28;20202;-74
2022/03/05 18:53:48;;;;;;;8.13;6.70;;;0.50;48.10;;;;;;4995306;28;20297;-74
2022/03/05 18:56:16;;;;;;;7.25;5.82;;;0.50;48.20;;;;;;4995179;28;20318;-74
2022/03/05 18:58:43;;;;;;;10.25;7.72;;;0.50;48.30;;;;;;4995087;28;20228;-74
2022/03/05 19:01:11;;;;;;;9.82;6.10;;;0.50;48.50;;;;;;4994962;28;20570;-74
2022/03/05 19:03:38;;;;;;;8.80;6.43;;;0.40;48.60;;;;;;4995043;28;20191;-74
2022/03/05 19:06:05;;;;;;;9.88;6.25;;;0.40;49.20;;;;;;4994998;28;20223;-75
2022/03/05 19:08:32;;;;;;;9.65;6.53;;;0.40;48.80;;;;;;4994934;28;20202;-74
2022/03/05 19:11:00;;;;;;;9.95;7.15;;;0.40;48.60;;;;;;4995012;28;20206;-73
2022/03/05 19:13:27;;;;;;;11.20;7.18;;;0.40;48.90;;;;;;4994906;28;20213;-73
2022/03/05 19:15:55;;;;;;;11.52;6.88;;;0.40;49.10;;;;;;4994704;28;20637;-72
2022/03/05 19:18:22;;;;;;;14.38;8.55;;;0.40;49.20;;;;;;4994541;28;20219;-73
2022/03/05 19:20:49;;;;;;;9.57;6.90;;;0.30;49.10;;;;;;4994940;28;20294;-73
2022/03/05 19:23:17;;;;;;;13.32;8.43;;;0.30;49.50;;;;;;4995570;28;20202;-74
2022/03/05 19:25:44;;;;;;;10.75;6.90;;;0.30;48.90;;;;;;4994736;28;20350;-73
2022/03/05 19:28:13;;;;;;;10.23;6.60;;;0.30;49.00;;;;;;4994784;28;20209;-74
2022/03/05 19:30:40;;;;;;;10.25;6.63;;;0.30;48.90;;;;;;4994804;28;20206;-74
2022/03/05 19:33:07;;;;;;;10.63;6.75;;;0.30;48.80;;;;;;4994816;28;20210;-73
2022/03/05 19:35:34;;;;;;;16.50;7.85;;;0.30;48.90;;;;;;4994671;28;20586;-73
2022/03/05 19:38:03;;;;;;;11.52;7.30;;;0.20;49.00;;;;;;4994333;28;20588;-74
2022/03/05 19:40:34;;;;;;;9.65;6.63;;;0.20;49.20;;;;;;4994836;28;20240;-74
2022/03/05 19:43:01;;;;;;;10.02;6.78;;;0.20;49.60;;;;;;4994669;28;20187;-73
2022/03/05 19:45:30;;;;;;;9.63;5.90;;;0.10;49.80;;;;;;4994258;28;20245;-73
2022/03/05 19:47:57;;;;;;;9.35;6.03;;;0.10;49.90;;;;;;4994788;28;20595;-73
2022/03/05 19:50:25;;;;;;;12.77;6.70;;;0.10;49.90;;;;;;4994380;28;20650;-74
2022/03/05 19:52:52;;;;;;;9.48;6.60;;;0.10;50.20;;;;;;4994122;28;20615;-74
2022/03/05 19:55:20;;;;;;;11.02;6.00;;;0.10;50.40;;;;;;4994140;28;20649;-73
2022/03/05 19:57:48;;;;;;;7.78;5.68;;;0.00;50.80;;;;;;4994004;28;20681;-72
2022/03/05 20:00:17;;;;;;;8.77;6.30;;;0.00;51.10;;;;;;4994555;28;20209;-72
2022/03/05 20:02:45;;;;;;;10.02;6.15;;;0.00;51.10;;;;;;4994250;28;20669;-72
2022/03/05 20:05:13;;;;;;;11.07;7.30;;;0.00;51.20;;;;;;4994223;28;20277;-72
2022/03/05 20:07:43;;;;;;;8.55;6.65;;;-0.10;51.50;;;;;;4994202;28;20256;-72
2022/03/05 20:10:11;;;;;;;11.38;6.30;;;-0.10;51.90;;;;;;4994327;28;20182;-72
2022/03/05 20:12:38;;;;;;;10.68;7.18;;;-0.10;52.40;;;;;;4994017;28;20700;-72
2022/03/05 20:15:10;;;;;;;9.35;6.93;;;-0.20;52.70;;;;;;4994222;28;20222;-72
2022/03/05 20:17:37;;;;;;;10.18;6.57;;;-0.20;52.80;;;;;;4994456;28;20183;-72
2022/03/05 20:20:07;;;;;;;9.68;6.55;;;-0.20;53.40;;;;;;4994093;28;20234;-71
2022/03/05 20:22:34;;;;;;;9.32;5.70;;;-0.20;53.40;;;;;;4994253;28;20289;-72
2022/03/05 20:25:01;;;;;;;9.13;5.93;;;-0.20;53.50;;;;;;4994177;28;20222;-73
2022/03/05 20:27:28;;;;;;;9.57;6.10;;;-0.30;54.00;;;;;;4993734;28;20754;-74
2022/03/05 20:29:56;;;;;;;7.13;5.30;;;-0.30;54.70;;;;;;4994179;28;20194;-74
2022/03/05 20:32:22;;;;;;;7.47;5.00;;;-0.30;55.60;;;;;;4994237;28;20209;-74
2022/03/05 20:34:49;;;;;;;5.82;4.90;;;-0.40;56.60;;;;;;4993688;28;20230;-75
2022/03/05 20:37:18;;;;;;;6.32;4.78;;;-0.50;57.40;;;;;;4994148;28;20298;-74
2022/03/05 20:39:45;;;;;;;8.07;4.68;;;-0.50;58.20;;;;;;4993774;28;20776;-74
2022/03/05 20:42:13;;;;;;;5.75;4.22;;;-0.60;59.30;;;;;;4994201;28;20253;-75
2022/03/05 20:44:40;;;;;;;4.38;3.95;;;-0.60;59.80;;;;;;4996151;28;20601;-75
2022/03/05 20:47:07;;;;;;;4.47;3.65;;;-0.70;61.10;;;;;;4994528;28;20563;-74
2022/03/05 20:49:34;;;;;;;4.32;3.83;;;-0.70;62.50;;;;;;4994201;28;20202;-74
2022/03/05 20:52:01;;;;;;;3.45;3.22;;;-0.80;63.60;;;;;;4993980;28;20202;-74
2022/03/05 20:54:29;;;;;;;3.97;3.50;;;-0.80;64.40;;;;;;4993910;28;20297;-74
2022/03/05 20:56:56;;;;;;;5.05;3.67;;;-0.90;65.00;;;;;;4994012;28;20241;-74
2022/03/05 20:59:23;;;;;;;3.25;3.03;;;-0.90;66.10;;;;;;4993819;28;20305;-74
2022/03/05 21:01:50;;;;;;;4.13;3.05;;;-1.00;66.90;;;;;;4993661;28;20224;-74
2022/03/05 21:04:17;;;;;;;4.00;3.00;;;-1.00;68.30;;;;;;4993764;28;20207;-74
2022/03/05 21:06:44;;;;;;;3.28;3.05;;;-1.00;70.00;;;;;;4993832;28;20238;-75
2022/03/05 21:09:11;;;;;;;2.72;2.60;;;-1.10;70.20;;;;;;4995685;28;20199;-76
2022/03/05 21:11:39;;;;;;;3.22;3.00;;;-1.10;71.70;;;;;;4997200;28;20229;-74
2022/03/05 21:14:06;;;;;;;3.28;2.85;;;-1.10;73.00;;;;;;4997709;28;20294;-75
2022/03/05 21:16:33;;;;;;;4.00;3.47;;;-1.20;73.70;;;;;;5000064;28;20261;-73
2022/03/05 21:19:00;;;;;;;3.65;3.25;;;-1.20;74.80;;;;;;5000531;28;20310;-74
2022/03/05 21:21:26;;;;;;;2.80;2.60;;;-1.30;75.50;;;;;;5000313;28;20202;-74
2022/03/05 21:23:59;;;;;;;3.03;2.83;;;-1.20;75.40;;;;;;5000006;28;20293;-74
2022/03/05 21:26:27;;;;;;;3.40;3.05;;;-1.30;76.60;;;;;;5000357;28;20736;-74
2022/03/05 21:28:56;;;;;;;3.17;2.97;;;-1.30;77.10;;;;;;5001033;28;20246;-74
2022/03/05 21:31:23;;;;;;;3.67;3.38;;;-1.30;78.10;;;;;;5000527;28;20199;-74
2022/03/05 21:33:50;;;;;;;3.40;3.05;;;-1.40;79.20;;;;;;5000605;28;20199;-74
2022/03/05 21:36:16;;;;;;;3.10;2.80;;;-1.40;79.10;;;;;;5000522;28;20219;-75
2022/03/05 21:38:43;;;;;;;3.00;2.80;;;-1.40;79.80;;;;;;5001533;28;20223;-75
2022/03/05 21:41:10;;;;;;;3.17;2.85;;;-1.40;80.80;;;;;;5002551;28;20238;-73
2022/03/05 21:43:37;;;;;;;2.80;2.60;;;-1.50;81.40;;;;;;5002644;28;20301;-73
2022/03/05 21:46:06;;;;;;;3.20;2.88;;;-1.50;82.90;;;;;;5001755;28;20230;-73
2022/03/05 21:48:33;;;;;;;4.28;2.95;;;-1.50;84.30;;;;;;5001976;28;20277;-73
2022/03/05 21:51:01;;;;;;;3.83;2.92;;;-1.60;84.40;;;;;;5000831;28;20203;-73
2022/03/05 21:53:28;;;;;;;3.30;3.00;;;-1.60;85.70;;;;;;4999746;28;20199;-73
2022/03/05 21:55:55;;;;;;;3.45;3.15;;;-1.60;86.00;;;;;;4999057;28;20284;-73
2022/03/05 21:58:22;;;;;;;3.03;2.83;;;-1.70;87.20;;;;;;4998819;28;20230;-73
2022/03/05 22:00:49;;;;;;;3.30;2.97;;;-1.70;89.10;;;;;;4999397;28;20305;-74
2022/03/05 22:03:17;;;;;;;3.63;3.10;;;-1.70;90.20;;;;;;5055282;23;20648;-71
2022/03/05 22:05:44;;;;;;;3.50;2.97;;;-1.80;90.80;;;;;;4998637;28;20194;-71
2022/03/05 22:08:11;;;;;;;3.25;3.03;;;-1.80;91.10;;;;;;4998492;28;20564;-71